sensor_id;sensor_type;location;lat;lon;timestamp;temperature;humidity
8896;DHT22;4484;48.928;10.066;2023-03-24T00:00:18;11.60;99.90
8896;DHT22;4484;48.928;10.066;2023-03-24T00:02:47;11.50;99.90
8896;DHT22;4484;48.928;10.066;2023-03-24T00:05:19;11.50;99.90
8896;DHT22;4484;48.928;10.066;2023-03-24T00:07:47;11.50;99.90
8896;DHT22;4484;48.928;10.066;2023-03-24T00:10:19;11.40;99.90
8896;DHT22;4484;48.928;10.066;2023-03-24T00:12:47;11.40;99.90
8896;DHT22;4484;48.928;10.066;2023-03-24T00:15:19;11.50;99.90
8896;DHT22;4484;48.928;10.066;2023-03-24T00:17:47;11.40;99.90
8896;DHT22;4484;48.928;10.066;2023-03-24T00:20:17;11.40;99.90
8896;DHT22;4484;48.928;10.066;2023-03-24T00:22:48;11.40;99.90
8896;DHT22;4484;48.928;10.066;2023-03-24T00:25:19;11.40;99.90
8896;DHT22;4484;48.928;10.066;2023-03-24T00:27:46;11.40;99.90
8896;DHT22;4484;48.928;10.066;2023-03-24T00:30:18;11.40;99.90
8896;DHT22;4484;48.928;10.066;2023-03-24T00:32:45;11.40;99.90
8896;DHT22;4484;48.928;10.066;2023-03-24T00:35:14;11.40;99.90
8896;DHT22;4484;48.928;10.066;2023-03-24T00:37:42;11.30;99.90
8896;DHT22;4484;48.928;10.066;2023-03-24T00:40:14;11.30;99.90
8896;DHT22;4484;48.928;10.066;2023-03-24T00:42:44;11.40;99.90
8896;DHT22;4484;48.928;10.066;2023-03-24T00:45:15;11.40;99.90
8896;DHT22;4484;48.928;10.066;2023-03-24T00:47:44;11.40;99.90
8896;DHT22;4484;48.928;10.066;2023-03-24T00:50:14;11.40;99.90
8896;DHT22;4484;48.928;10.066;2023-03-24T00:52:42;11.40;99.90
8896;DHT22;4484;48.928;10.066;2023-03-24T00:55:11;11.40;99.90
8896;DHT22;4484;48.928;10.066;2023-03-24T00:57:43;11.40;99.90
8896;DHT22;4484;48.928;10.066;2023-03-24T01:00:21;11.40;99.90
8896;DHT22;4484;48.928;10.066;2023-03-24T01:02:54;11.30;99.90
8896;DHT22;4484;48.928;10.066;2023-03-24T01:05:26;11.30;99.90
8896;DHT22;4484;48.928;10.066;2023-03-24T01:07:59;11.30;99.90
8896;DHT22;4484;48.928;10.066;2023-03-24T01:10:32;11.20;99.90
8896;DHT22;4484;48.928;10.066;2023-03-24T01:12:59;11.20;99.90
8896;DHT22;4484;48.928;10.066;2023-03-24T01:15:31;11.20;99.90
8896;DHT22;4484;48.928;10.066;2023-03-24T01:17:59;11.10;99.90
8896;DHT22;4484;48.928;10.066;2023-03-24T01:20:30;11.20;99.90
8896;DHT22;4484;48.928;10.066;2023-03-24T01:23:02;11.10;99.90
8896;DHT22;4484;48.928;10.066;2023-03-24T01:25:31;11.10;99.90
8896;DHT22;4484;48.928;10.066;2023-03-24T01:27:58;11.10;99.90
8896;DHT22;4484;48.928;10.066;2023-03-24T01:30:26;11.00;99.90
8896;DHT22;4484;48.928;10.066;2023-03-24T01:32:54;11.00;99.90
8896;DHT22;4484;48.928;10.066;2023-03-24T01:35:23;11.00;99.90
8896;DHT22;4484;48.928;10.066;2023-03-24T01:37:55;11.00;99.90
8896;DHT22;4484;48.928;10.066;2023-03-24T01:40:28;11.00;99.90
8896;DHT22;4484;48.928;10.066;2023-03-24T01:42:56;11.00;99.90
8896;DHT22;4484;48.928;10.066;2023-03-24T01:48:21;10.90;99.90
8896;DHT22;4484;48.928;10.066;2023-03-24T01:51:18;10.90;99.90
8896;DHT22;4484;48.928;10.066;2023-03-24T01:54:00;10.90;99.90
8896;DHT22;4484;48.928;10.066;2023-03-24T01:56:31;10.90;99.90
8896;DHT22;4484;48.928;10.066;2023-03-24T01:59:03;10.90;99.90
8896;DHT22;4484;48.928;10.066;2023-03-24T02:01:54;10.90;99.90
8896;DHT22;4484;48.928;10.066;2023-03-24T02:04:42;10.90;99.90
8896;DHT22;4484;48.928;10.066;2023-03-24T02:07:31;10.80;99.90
8896;DHT22;4484;48.928;10.066;2023-03-24T02:10:09;10.80;99.90
8896;DHT22;4484;48.928;10.066;2023-03-24T02:12:39;10.80;99.90
8896;DHT22;4484;48.928;10.066;2023-03-24T02:15:08;10.80;99.90
8896;DHT22;4484;48.928;10.066;2023-03-24T02:23:32;10.90;99.90
8896;DHT22;4484;48.928;10.066;2023-03-24T02:35:19;11.10;99.90
8896;DHT22;4484;48.928;10.066;2023-03-24T02:43:18;11.30;99.90
8896;DHT22;4484;48.928;10.066;2023-03-24T02:48:36;11.40;99.90
8896;DHT22;4484;48.928;10.066;2023-03-24T02:51:22;11.40;99.90
8896;DHT22;4484;48.928;10.066;2023-03-24T03:00:07;11.50;99.90
8896;DHT22;4484;48.928;10.066;2023-03-24T03:03:04;11.60;99.90
8896;DHT22;4484;48.928;10.066;2023-03-24T03:05:43;11.60;99.90
8896;DHT22;4484;48.928;10.066;2023-03-24T03:08:12;11.60;99.90
8896;DHT22;4484;48.928;10.066;2023-03-24T03:10:46;11.70;99.90
8896;DHT22;4484;48.928;10.066;2023-03-24T03:13:38;11.70;99.90
8896;DHT22;4484;48.928;10.066;2023-03-24T03:16:15;11.70;99.90
8896;DHT22;4484;48.928;10.066;2023-03-24T03:18:57;11.80;99.90
8896;DHT22;4484;48.928;10.066;2023-03-24T03:21:31;11.80;99.90
8896;DHT22;4484;48.928;10.066;2023-03-24T03:24:05;11.90;99.90
8896;DHT22;4484;48.928;10.066;2023-03-24T03:26:33;11.90;99.90
8896;DHT22;4484;48.928;10.066;2023-03-24T03:29:12;11.90;99.90
8896;DHT22;4484;48.928;10.066;2023-03-24T03:31:47;11.90;99.90
8896;DHT22;4484;48.928;10.066;2023-03-24T03:34:33;11.90;99.90
8896;DHT22;4484;48.928;10.066;2023-03-24T03:37:08;11.90;99.90
8896;DHT22;4484;48.928;10.066;2023-03-24T03:39:42;11.90;99.90
8896;DHT22;4484;48.928;10.066;2023-03-24T03:42:12;11.90;99.90
8896;DHT22;4484;48.928;10.066;2023-03-24T03:44:39;11.80;99.90
8896;DHT22;4484;48.928;10.066;2023-03-24T03:47:07;11.90;99.90
8896;DHT22;4484;48.928;10.066;2023-03-24T03:49:40;11.90;99.90
8896;DHT22;4484;48.928;10.066;2023-03-24T03:52:07;11.90;99.90
8896;DHT22;4484;48.928;10.066;2023-03-24T03:54:36;11.90;99.90
8896;DHT22;4484;48.928;10.066;2023-03-24T03:57:03;11.90;99.90
8896;DHT22;4484;48.928;10.066;2023-03-24T03:59:56;11.80;99.90
8896;DHT22;4484;48.928;10.066;2023-03-24T04:03:18;11.80;99.90
8896;DHT22;4484;48.928;10.066;2023-03-24T04:20:49;11.70;99.90
8896;DHT22;4484;48.928;10.066;2023-03-24T04:31:06;11.60;99.90
8896;DHT22;4484;48.928;10.066;2023-03-24T04:38:59;11.70;99.90
8896;DHT22;4484;48.928;10.066;2023-03-24T04:41:41;11.60;99.90
8896;DHT22;4484;48.928;10.066;2023-03-24T04:44:17;11.70;99.90
8896;DHT22;4484;48.928;10.066;2023-03-24T04:47:07;11.60;99.90
8896;DHT22;4484;48.928;10.066;2023-03-24T04:49:39;11.60;99.90
8896;DHT22;4484;48.928;10.066;2023-03-24T04:52:07;11.60;99.90
8896;DHT22;4484;48.928;10.066;2023-03-24T04:54:34;11.60;99.90
8896;DHT22;4484;48.928;10.066;2023-03-24T04:57:04;11.60;99.90
8896;DHT22;4484;48.928;10.066;2023-03-24T04:59:37;11.60;99.90
8896;DHT22;4484;48.928;10.066;2023-03-24T05:02:05;11.60;99.90
8896;DHT22;4484;48.928;10.066;2023-03-24T05:04:39;11.50;99.90
8896;DHT22;4484;48.928;10.066;2023-03-24T05:07:16;11.50;99.90
8896;DHT22;4484;48.928;10.066;2023-03-24T05:09:46;11.50;99.90
8896;DHT22;4484;48.928;10.066;2023-03-24T05:12:13;11.50;99.90
8896;DHT22;4484;48.928;10.066;2023-03-24T05:14:59;11.40;99.90
8896;DHT22;4484;48.928;10.066;2023-03-24T05:17:27;11.40;99.90
8896;DHT22;4484;48.928;10.066;2023-03-24T05:19:54;11.30;99.90
8896;DHT22;4484;48.928;10.066;2023-03-24T05:22:21;11.30;99.90
8896;DHT22;4484;48.928;10.066;2023-03-24T05:24:50;11.30;99.90
8896;DHT22;4484;48.928;10.066;2023-03-24T05:27:17;11.20;99.90
8896;DHT22;4484;48.928;10.066;2023-03-24T05:29:44;11.20;99.90
8896;DHT22;4484;48.928;10.066;2023-03-24T05:32:18;11.20;99.90
8896;DHT22;4484;48.928;10.066;2023-03-24T05:34:45;11.20;99.90
8896;DHT22;4484;48.928;10.066;2023-03-24T05:37:13;11.20;99.90
8896;DHT22;4484;48.928;10.066;2023-03-24T05:39:46;11.10;99.90
8896;DHT22;4484;48.928;10.066;2023-03-24T05:42:42;11.20;99.90
8896;DHT22;4484;48.928;10.066;2023-03-24T05:45:11;11.20;99.90
8896;DHT22;4484;48.928;10.066;2023-03-24T05:47:39;11.10;99.90
8896;DHT22;4484;48.928;10.066;2023-03-24T05:50:06;11.20;99.90
8896;DHT22;4484;48.928;10.066;2023-03-24T05:52:34;11.10;99.90
8896;DHT22;4484;48.928;10.066;2023-03-24T05:55:27;11.20;99.90
8896;DHT22;4484;48.928;10.066;2023-03-24T05:58:00;11.20;99.90
8896;DHT22;4484;48.928;10.066;2023-03-24T06:00:35;11.40;99.90
8896;DHT22;4484;48.928;10.066;2023-03-24T06:03:09;11.60;99.90
8896;DHT22;4484;48.928;10.066;2023-03-24T06:05:43;11.80;99.90
8896;DHT22;4484;48.928;10.066;2023-03-24T06:08:11;12.00;99.90
8896;DHT22;4484;48.928;10.066;2023-03-24T06:10:38;12.10;99.90
8896;DHT22;4484;48.928;10.066;2023-03-24T06:13:06;12.10;99.90
8896;DHT22;4484;48.928;10.066;2023-03-24T06:15:36;12.20;99.90
8896;DHT22;4484;48.928;10.066;2023-03-24T06:18:25;12.20;99.90
8896;DHT22;4484;48.928;10.066;2023-03-24T06:20:54;12.10;99.90
8896;DHT22;4484;48.928;10.066;2023-03-24T06:23:28;12.10;99.90
8896;DHT22;4484;48.928;10.066;2023-03-24T06:26:20;12.00;99.90
8896;DHT22;4484;48.928;10.066;2023-03-24T06:28:51;11.90;99.90
8896;DHT22;4484;48.928;10.066;2023-03-24T06:31:20;11.90;99.90
8896;DHT22;4484;48.928;10.066;2023-03-24T06:33:51;11.70;99.90
8896;DHT22;4484;48.928;10.066;2023-03-24T06:36:18;11.60;99.90
8896;DHT22;4484;48.928;10.066;2023-03-24T06:38:45;11.60;99.90
8896;DHT22;4484;48.928;10.066;2023-03-24T06:41:16;11.40;99.90
8896;DHT22;4484;48.928;10.066;2023-03-24T06:43:43;11.30;99.90
8896;DHT22;4484;48.928;10.066;2023-03-24T06:46:10;11.30;99.90
8896;DHT22;4484;48.928;10.066;2023-03-24T06:48:40;11.30;99.90
8896;DHT22;4484;48.928;10.066;2023-03-24T06:51:07;11.20;99.90
8896;DHT22;4484;48.928;10.066;2023-03-24T06:53:34;11.10;99.90
8896;DHT22;4484;48.928;10.066;2023-03-24T06:56:01;11.10;99.90
8896;DHT22;4484;48.928;10.066;2023-03-24T06:58:35;11.10;99.90
8896;DHT22;4484;48.928;10.066;2023-03-24T07:01:03;11.00;99.90
8896;DHT22;4484;48.928;10.066;2023-03-24T07:03:32;11.10;99.90
8896;DHT22;4484;48.928;10.066;2023-03-24T07:06:28;11.10;99.90
8896;DHT22;4484;48.928;10.066;2023-03-24T07:09:01;11.20;99.90
8896;DHT22;4484;48.928;10.066;2023-03-24T07:11:29;11.40;99.90
8896;DHT22;4484;48.928;10.066;2023-03-24T07:13:59;11.60;99.90
8896;DHT22;4484;48.928;10.066;2023-03-24T07:16:28;11.70;99.90
8896;DHT22;4484;48.928;10.066;2023-03-24T07:19:06;11.80;99.90
8896;DHT22;4484;48.928;10.066;2023-03-24T07:21:36;11.90;99.90
8896;DHT22;4484;48.928;10.066;2023-03-24T07:24:04;11.90;99.90
8896;DHT22;4484;48.928;10.066;2023-03-24T07:27:03;11.90;99.90
8896;DHT22;4484;48.928;10.066;2023-03-24T07:29:32;11.80;99.90
8896;DHT22;4484;48.928;10.066;2023-03-24T07:32:14;11.80;99.90
8896;DHT22;4484;48.928;10.066;2023-03-24T07:34:41;11.90;99.90
8896;DHT22;4484;48.928;10.066;2023-03-24T07:37:09;11.90;99.90
8896;DHT22;4484;48.928;10.066;2023-03-24T07:39:36;11.80;99.90
8896;DHT22;4484;48.928;10.066;2023-03-24T07:42:04;11.80;99.90
8896;DHT22;4484;48.928;10.066;2023-03-24T07:44:43;11.80;99.90
8896;DHT22;4484;48.928;10.066;2023-03-24T07:47:11;11.80;99.90
8896;DHT22;4484;48.928;10.066;2023-03-24T07:49:37;11.80;99.90
8896;DHT22;4484;48.928;10.066;2023-03-24T07:52:08;11.80;99.90
8896;DHT22;4484;48.928;10.066;2023-03-24T07:54:42;11.80;99.90
8896;DHT22;4484;48.928;10.066;2023-03-24T07:57:13;11.80;99.90
8896;DHT22;4484;48.928;10.066;2023-03-24T07:59:39;11.70;99.90
8896;DHT22;4484;48.928;10.066;2023-03-24T08:02:18;11.70;99.90
8896;DHT22;4484;48.928;10.066;2023-03-24T08:05:06;11.70;99.90
8896;DHT22;4484;48.928;10.066;2023-03-24T08:07:55;11.60;99.90
8896;DHT22;4484;48.928;10.066;2023-03-24T08:10:26;11.50;99.90
8896;DHT22;4484;48.928;10.066;2023-03-24T08:12:54;11.50;99.90
8896;DHT22;4484;48.928;10.066;2023-03-24T08:15:22;11.40;99.90
8896;DHT22;4484;48.928;10.066;2023-03-24T08:17:49;11.40;99.90
8896;DHT22;4484;48.928;10.066;2023-03-24T08:20:18;11.30;99.90
8896;DHT22;4484;48.928;10.066;2023-03-24T08:22:48;11.20;99.90
8896;DHT22;4484;48.928;10.066;2023-03-24T08:25:17;11.20;99.90
8896;DHT22;4484;48.928;10.066;2023-03-24T08:27:45;11.20;99.90
8896;DHT22;4484;48.928;10.066;2023-03-24T08:30:15;11.10;99.90
8896;DHT22;4484;48.928;10.066;2023-03-24T08:32:54;11.10;99.90
8896;DHT22;4484;48.928;10.066;2023-03-24T08:35:24;11.10;99.90
8896;DHT22;4484;48.928;10.066;2023-03-24T08:37:51;11.00;99.90
8896;DHT22;4484;48.928;10.066;2023-03-24T08:40:20;11.00;99.90
8896;DHT22;4484;48.928;10.066;2023-03-24T08:42:51;11.00;99.90
8896;DHT22;4484;48.928;10.066;2023-03-24T08:45:20;11.00;99.90
8896;DHT22;4484;48.928;10.066;2023-03-24T08:47:48;11.00;99.90
8896;DHT22;4484;48.928;10.066;2023-03-24T08:50:19;11.10;99.90
8896;DHT22;4484;48.928;10.066;2023-03-24T08:52:47;11.10;99.90
8896;DHT22;4484;48.928;10.066;2023-03-24T08:55:18;11.10;99.90
8896;DHT22;4484;48.928;10.066;2023-03-24T08:57:46;11.10;99.90
8896;DHT22;4484;48.928;10.066;2023-03-24T09:00:14;11.10;99.90
8896;DHT22;4484;48.928;10.066;2023-03-24T09:02:47;11.10;99.90
8896;DHT22;4484;48.928;10.066;2023-03-24T09:05:14;11.10;99.90
8896;DHT22;4484;48.928;10.066;2023-03-24T09:07:44;11.20;99.90
8896;DHT22;4484;48.928;10.066;2023-03-24T09:10:13;11.20;99.90
8896;DHT22;4484;48.928;10.066;2023-03-24T09:12:40;11.20;99.90
8896;DHT22;4484;48.928;10.066;2023-03-24T09:15:09;11.20;99.90
8896;DHT22;4484;48.928;10.066;2023-03-24T09:17:40;11.30;99.90
8896;DHT22;4484;48.928;10.066;2023-03-24T09:20:09;11.30;99.90
8896;DHT22;4484;48.928;10.066;2023-03-24T09:22:42;11.30;99.90
8896;DHT22;4484;48.928;10.066;2023-03-24T09:25:13;11.40;99.90
8896;DHT22;4484;48.928;10.066;2023-03-24T09:27:40;11.40;99.90
8896;DHT22;4484;48.928;10.066;2023-03-24T09:30:09;11.50;99.90
8896;DHT22;4484;48.928;10.066;2023-03-24T09:32:36;11.60;99.90
8896;DHT22;4484;48.928;10.066;2023-03-24T09:35:04;11.60;99.90
8896;DHT22;4484;48.928;10.066;2023-03-24T09:37:32;11.70;99.90
8896;DHT22;4484;48.928;10.066;2023-03-24T09:39:59;11.80;99.90
8896;DHT22;4484;48.928;10.066;2023-03-24T09:42:31;11.80;99.90
8896;DHT22;4484;48.928;10.066;2023-03-24T09:45:04;11.90;99.90
8896;DHT22;4484;48.928;10.066;2023-03-24T09:47:37;12.00;99.90
8896;DHT22;4484;48.928;10.066;2023-03-24T09:50:19;12.00;99.90
8896;DHT22;4484;48.928;10.066;2023-03-24T09:52:55;12.10;99.90
8896;DHT22;4484;48.928;10.066;2023-03-24T09:55:26;12.10;99.90
8896;DHT22;4484;48.928;10.066;2023-03-24T09:57:58;12.20;99.90
8896;DHT22;4484;48.928;10.066;2023-03-24T10:00:30;12.20;99.90
8896;DHT22;4484;48.928;10.066;2023-03-24T10:03:00;12.20;99.90
8896;DHT22;4484;48.928;10.066;2023-03-24T10:05:50;12.20;99.90
8896;DHT22;4484;48.928;10.066;2023-03-24T10:11:27;12.30;99.90
8896;DHT22;4484;48.928;10.066;2023-03-24T10:13:58;12.40;99.90
8896;DHT22;4484;48.928;10.066;2023-03-24T10:16:45;12.40;99.90
8896;DHT22;4484;48.928;10.066;2023-03-24T10:27:50;13.00;99.90
8896;DHT22;4484;48.928;10.066;2023-03-24T10:30:25;13.00;99.90
8896;DHT22;4484;48.928;10.066;2023-03-24T10:32:52;13.10;99.90
8896;DHT22;4484;48.928;10.066;2023-03-24T10:35:24;13.20;99.90
8896;DHT22;4484;48.928;10.066;2023-03-24T10:37:56;13.30;99.90
8896;DHT22;4484;48.928;10.066;2023-03-24T10:40:30;13.40;99.90
8896;DHT22;4484;48.928;10.066;2023-03-24T10:43:01;13.50;99.90
8896;DHT22;4484;48.928;10.066;2023-03-24T10:45:37;13.70;99.90
8896;DHT22;4484;48.928;10.066;2023-03-24T10:48:05;14.00;99.90
8896;DHT22;4484;48.928;10.066;2023-03-24T10:50:33;14.30;99.90
8896;DHT22;4484;48.928;10.066;2023-03-24T10:53:08;14.50;99.90
8896;DHT22;4484;48.928;10.066;2023-03-24T10:55:37;14.80;99.90
8896;DHT22;4484;48.928;10.066;2023-03-24T11:00:48;14.90;99.90
8896;DHT22;4484;48.928;10.066;2023-03-24T11:03:26;14.90;99.90
8896;DHT22;4484;48.928;10.066;2023-03-24T11:06:02;14.90;99.90
8896;DHT22;4484;48.928;10.066;2023-03-24T11:10:57;15.00;99.90
8896;DHT22;4484;48.928;10.066;2023-03-24T11:13:32;14.70;99.90
8896;DHT22;4484;48.928;10.066;2023-03-24T11:16:15;14.60;99.90
8896;DHT22;4484;48.928;10.066;2023-03-24T11:19:04;14.50;99.90
8896;DHT22;4484;48.928;10.066;2023-03-24T11:21:35;14.60;99.90
8896;DHT22;4484;48.928;10.066;2023-03-24T11:24:09;14.60;99.90
8896;DHT22;4484;48.928;10.066;2023-03-24T11:26:39;14.60;99.90
8896;DHT22;4484;48.928;10.066;2023-03-24T11:29:17;14.60;99.90
8896;DHT22;4484;48.928;10.066;2023-03-24T11:32:02;14.60;99.90
8896;DHT22;4484;48.928;10.066;2023-03-24T11:34:33;14.60;99.90
8896;DHT22;4484;48.928;10.066;2023-03-24T11:37:07;14.60;99.90
8896;DHT22;4484;48.928;10.066;2023-03-24T11:39:37;14.50;99.90
8896;DHT22;4484;48.928;10.066;2023-03-24T11:44:49;14.50;99.90
8896;DHT22;4484;48.928;10.066;2023-03-24T11:49:52;14.50;99.90
8896;DHT22;4484;48.928;10.066;2023-03-24T11:52:27;14.40;99.90
8896;DHT22;4484;48.928;10.066;2023-03-24T11:54:56;14.30;99.90
8896;DHT22;4484;48.928;10.066;2023-03-24T11:58:15;14.30;99.90
8896;DHT22;4484;48.928;10.066;2023-03-24T12:00:26;14.40;99.90
8896;DHT22;4484;48.928;10.066;2023-03-24T12:14:00;16.00;99.90
8896;DHT22;4484;48.928;10.066;2023-03-24T12:16:57;16.00;99.90
8896;DHT22;4484;48.928;10.066;2023-03-24T12:25:17;15.60;99.90
8896;DHT22;4484;48.928;10.066;2023-03-24T12:39:14;15.40;99.90
8896;DHT22;4484;48.928;10.066;2023-03-24T12:42:05;15.20;99.90
8896;DHT22;4484;48.928;10.066;2023-03-24T12:45:38;15.10;99.90
8896;DHT22;4484;48.928;10.066;2023-03-24T12:54:01;14.50;99.90
8896;DHT22;4484;48.928;10.066;2023-03-24T12:59:34;14.40;99.90
8896;DHT22;4484;48.928;10.066;2023-03-24T13:02:26;14.40;99.90
8896;DHT22;4484;48.928;10.066;2023-03-24T13:04:59;14.40;99.90
8896;DHT22;4484;48.928;10.066;2023-03-24T13:07:34;14.40;99.90
8896;DHT22;4484;48.928;10.066;2023-03-24T13:10:14;14.50;99.90
8896;DHT22;4484;48.928;10.066;2023-03-24T13:12:57;14.50;99.90
8896;DHT22;4484;48.928;10.066;2023-03-24T13:15:40;14.50;99.90
8896;DHT22;4484;48.928;10.066;2023-03-24T13:21:03;14.40;99.90
8896;DHT22;4484;48.928;10.066;2023-03-24T13:23:58;14.40;99.90
8896;DHT22;4484;48.928;10.066;2023-03-24T13:26:55;14.40;99.90
8896;DHT22;4484;48.928;10.066;2023-03-24T13:32:37;14.40;99.90
8896;DHT22;4484;48.928;10.066;2023-03-24T13:37:51;14.50;99.90
8896;DHT22;4484;48.928;10.066;2023-03-24T13:40:25;14.60;99.90
8896;DHT22;4484;48.928;10.066;2023-03-24T13:42:56;14.80;99.90
8896;DHT22;4484;48.928;10.066;2023-03-24T13:48:16;15.00;99.90
8896;DHT22;4484;48.928;10.066;2023-03-24T13:50:54;14.90;99.90
8896;DHT22;4484;48.928;10.066;2023-03-24T13:55:58;14.60;99.90
8896;DHT22;4484;48.928;10.066;2023-03-24T13:58:43;14.60;99.90
8896;DHT22;4484;48.928;10.066;2023-03-24T14:06:55;14.40;99.90
8896;DHT22;4484;48.928;10.066;2023-03-24T14:09:27;14.30;99.90
8896;DHT22;4484;48.928;10.066;2023-03-24T14:14:23;14.10;99.90
8896;DHT22;4484;48.928;10.066;2023-03-24T14:17:05;14.00;99.90
8896;DHT22;4484;48.928;10.066;2023-03-24T14:22:31;13.80;99.90
8896;DHT22;4484;48.928;10.066;2023-03-24T14:27:45;13.50;99.90
8896;DHT22;4484;48.928;10.066;2023-03-24T14:30:27;13.30;99.90
8896;DHT22;4484;48.928;10.066;2023-03-24T14:33:00;13.00;99.90
8896;DHT22;4484;48.928;10.066;2023-03-24T14:35:44;12.60;99.90
8896;DHT22;4484;48.928;10.066;2023-03-24T14:40:47;12.10;99.90
8896;DHT22;4484;48.928;10.066;2023-03-24T14:43:28;11.80;99.90
8896;DHT22;4484;48.928;10.066;2023-03-24T14:49:02;11.30;99.90
8896;DHT22;4484;48.928;10.066;2023-03-24T14:54:47;11.10;99.90
8896;DHT22;4484;48.928;10.066;2023-03-24T14:57:21;11.10;99.90
8896;DHT22;4484;48.928;10.066;2023-03-24T15:00:03;11.00;99.90
8896;DHT22;4484;48.928;10.066;2023-03-24T15:02:52;10.90;99.90
8896;DHT22;4484;48.928;10.066;2023-03-24T15:08:20;10.80;99.90
8896;DHT22;4484;48.928;10.066;2023-03-24T15:10:52;10.80;99.90
8896;DHT22;4484;48.928;10.066;2023-03-24T15:13:47;10.70;99.90
8896;DHT22;4484;48.928;10.066;2023-03-24T15:16:19;10.50;99.90
8896;DHT22;4484;48.928;10.066;2023-03-24T15:19:36;10.40;99.90
8896;DHT22;4484;48.928;10.066;2023-03-24T15:21:49;10.30;99.90
8896;DHT22;4484;48.928;10.066;2023-03-24T15:26:54;10.10;99.90
8896;DHT22;4484;48.928;10.066;2023-03-24T15:29:21;10.00;99.90
8896;DHT22;4484;48.928;10.066;2023-03-24T15:31:49;9.90;99.90
8896;DHT22;4484;48.928;10.066;2023-03-24T15:34:28;9.80;99.90
8896;DHT22;4484;48.928;10.066;2023-03-24T15:36:58;9.80;99.90
8896;DHT22;4484;48.928;10.066;2023-03-24T15:39:27;9.70;99.90
8896;DHT22;4484;48.928;10.066;2023-03-24T15:41:55;9.60;99.90
8896;DHT22;4484;48.928;10.066;2023-03-24T15:44:29;9.50;99.90
8896;DHT22;4484;48.928;10.066;2023-03-24T15:46:59;9.50;99.90
8896;DHT22;4484;48.928;10.066;2023-03-24T15:49:32;9.40;99.90
8896;DHT22;4484;48.928;10.066;2023-03-24T15:52:02;9.40;99.90
8896;DHT22;4484;48.928;10.066;2023-03-24T15:54:39;9.30;99.90
8896;DHT22;4484;48.928;10.066;2023-03-24T15:57:16;9.30;99.90
8896;DHT22;4484;48.928;10.066;2023-03-24T15:59:47;9.30;99.90
8896;DHT22;4484;48.928;10.066;2023-03-24T16:02:27;9.30;99.90
8896;DHT22;4484;48.928;10.066;2023-03-24T16:04:58;9.20;99.90
8896;DHT22;4484;48.928;10.066;2023-03-24T16:07:36;9.20;99.90
8896;DHT22;4484;48.928;10.066;2023-03-24T16:10:30;9.20;99.90
8896;DHT22;4484;48.928;10.066;2023-03-24T16:13:21;9.10;99.90
8896;DHT22;4484;48.928;10.066;2023-03-24T16:18:29;9.10;99.90
8896;DHT22;4484;48.928;10.066;2023-03-24T16:21:02;9.10;99.90
8896;DHT22;4484;48.928;10.066;2023-03-24T16:23:30;9.10;99.90
8896;DHT22;4484;48.928;10.066;2023-03-24T16:25:57;9.00;99.90
8896;DHT22;4484;48.928;10.066;2023-03-24T16:28:24;9.10;99.90
8896;DHT22;4484;48.928;10.066;2023-03-24T16:30:57;9.10;99.90
8896;DHT22;4484;48.928;10.066;2023-03-24T16:33:25;9.00;99.90
8896;DHT22;4484;48.928;10.066;2023-03-24T16:35:52;9.00;99.90
8896;DHT22;4484;48.928;10.066;2023-03-24T16:38:19;9.00;99.90
8896;DHT22;4484;48.928;10.066;2023-03-24T16:40:54;9.00;99.90
8896;DHT22;4484;48.928;10.066;2023-03-24T16:43:21;9.00;99.90
8896;DHT22;4484;48.928;10.066;2023-03-24T16:45:49;9.00;99.90
8896;DHT22;4484;48.928;10.066;2023-03-24T16:48:17;9.00;99.90
8896;DHT22;4484;48.928;10.066;2023-03-24T16:50:46;9.00;99.90
8896;DHT22;4484;48.928;10.066;2023-03-24T16:53:17;9.00;99.90
8896;DHT22;4484;48.928;10.066;2023-03-24T16:55:44;9.10;99.90
8896;DHT22;4484;48.928;10.066;2023-03-24T16:58:13;9.10;99.90
8896;DHT22;4484;48.928;10.066;2023-03-24T17:00:42;9.10;99.90
8896;DHT22;4484;48.928;10.066;2023-03-24T17:03:09;9.20;99.90
8896;DHT22;4484;48.928;10.066;2023-03-24T17:05:46;9.10;99.90
8896;DHT22;4484;48.928;10.066;2023-03-24T17:08:15;9.10;99.90
8896;DHT22;4484;48.928;10.066;2023-03-24T17:10:43;9.10;99.90
8896;DHT22;4484;48.928;10.066;2023-03-24T17:13:18;9.10;99.90
8896;DHT22;4484;48.928;10.066;2023-03-24T17:15:46;9.20;99.90
8896;DHT22;4484;48.928;10.066;2023-03-24T17:18:13;9.20;99.90
8896;DHT22;4484;48.928;10.066;2023-03-24T17:20:40;9.20;99.90
8896;DHT22;4484;48.928;10.066;2023-03-24T17:23:09;9.20;99.90
8896;DHT22;4484;48.928;10.066;2023-03-24T17:25:37;9.20;99.90
8896;DHT22;4484;48.928;10.066;2023-03-24T17:28:10;9.20;99.90
8896;DHT22;4484;48.928;10.066;2023-03-24T17:30:38;9.20;99.90
8896;DHT22;4484;48.928;10.066;2023-03-24T17:33:05;9.20;99.90
8896;DHT22;4484;48.928;10.066;2023-03-24T17:35:32;9.10;99.90
8896;DHT22;4484;48.928;10.066;2023-03-24T17:37:59;9.10;99.90
8896;DHT22;4484;48.928;10.066;2023-03-24T17:40:26;9.10;99.90
8896;DHT22;4484;48.928;10.066;2023-03-24T17:42:53;9.10;99.90
8896;DHT22;4484;48.928;10.066;2023-03-24T17:45:20;9.10;99.90
8896;DHT22;4484;48.928;10.066;2023-03-24T17:47:47;9.00;99.90
8896;DHT22;4484;48.928;10.066;2023-03-24T17:50:14;9.00;99.90
8896;DHT22;4484;48.928;10.066;2023-03-24T17:52:46;8.90;99.90
8896;DHT22;4484;48.928;10.066;2023-03-24T17:55:15;8.90;99.90
8896;DHT22;4484;48.928;10.066;2023-03-24T17:57:42;8.80;99.90
8896;DHT22;4484;48.928;10.066;2023-03-24T18:00:11;8.80;99.90
8896;DHT22;4484;48.928;10.066;2023-03-24T18:02:40;8.70;99.90
8896;DHT22;4484;48.928;10.066;2023-03-24T18:05:09;8.70;99.90
8896;DHT22;4484;48.928;10.066;2023-03-24T18:07:38;8.70;99.90
8896;DHT22;4484;48.928;10.066;2023-03-24T18:10:06;8.70;99.90
8896;DHT22;4484;48.928;10.066;2023-03-24T18:12:34;8.70;99.90
8896;DHT22;4484;48.928;10.066;2023-03-24T18:15:03;8.60;99.90
8896;DHT22;4484;48.928;10.066;2023-03-24T18:17:30;8.60;99.90
8896;DHT22;4484;48.928;10.066;2023-03-24T18:19:58;8.60;99.90
8896;DHT22;4484;48.928;10.066;2023-03-24T18:22:36;8.60;99.90
8896;DHT22;4484;48.928;10.066;2023-03-24T18:25:03;8.60;99.90
8896;DHT22;4484;48.928;10.066;2023-03-24T18:27:30;8.50;99.90
8896;DHT22;4484;48.928;10.066;2023-03-24T18:29:58;8.50;99.90
8896;DHT22;4484;48.928;10.066;2023-03-24T18:32:25;8.50;99.90
8896;DHT22;4484;48.928;10.066;2023-03-24T18:34:52;8.50;99.90
8896;DHT22;4484;48.928;10.066;2023-03-24T18:37:19;8.50;99.90
8896;DHT22;4484;48.928;10.066;2023-03-24T18:39:46;8.40;99.90
8896;DHT22;4484;48.928;10.066;2023-03-24T18:42:13;8.40;99.90
8896;DHT22;4484;48.928;10.066;2023-03-24T18:44:40;8.40;99.90
8896;DHT22;4484;48.928;10.066;2023-03-24T18:47:07;8.40;99.90
8896;DHT22;4484;48.928;10.066;2023-03-24T18:49:34;8.40;99.90
8896;DHT22;4484;48.928;10.066;2023-03-24T18:52:01;8.40;99.90
8896;DHT22;4484;48.928;10.066;2023-03-24T18:54:27;8.30;99.90
8896;DHT22;4484;48.928;10.066;2023-03-24T18:56:54;8.30;99.90
8896;DHT22;4484;48.928;10.066;2023-03-24T18:59:22;8.30;99.90
8896;DHT22;4484;48.928;10.066;2023-03-24T19:01:49;8.30;99.90
8896;DHT22;4484;48.928;10.066;2023-03-24T19:04:16;8.30;99.90
8896;DHT22;4484;48.928;10.066;2023-03-24T19:06:43;8.30;99.90
8896;DHT22;4484;48.928;10.066;2023-03-24T19:09:10;8.30;99.90